sensor_id;sensor_type;location;lat;lon;timestamp;pressure;altitude;pressure_sealevel;temperature;humidity
13407;BME280;6774;48.208;10.766;2023-11-21T00:00:16;95014.63;;;8.41;85.77
13407;BME280;6774;48.208;10.766;2023-11-21T00:02:45;95012.78;;;8.35;85.63
13407;BME280;6774;48.208;10.766;2023-11-21T00:05:14;95014.41;;;8.36;85.48
13407;BME280;6774;48.208;10.766;2023-11-21T00:07:43;95015.41;;;8.35;85.90
13407;BME280;6774;48.208;10.766;2023-11-21T00:10:11;95008.22;;;8.28;86.77
13407;BME280;6774;48.208;10.766;2023-11-21T00:12:41;95011.56;;;8.22;86.93
13407;BME280;6774;48.208;10.766;2023-11-21T00:15:10;95011.22;;;8.25;87.15
13407;BME280;6774;48.208;10.766;2023-11-21T00:17:38;95015.16;;;8.15;87.13
13407;BME280;6774;48.208;10.766;2023-11-21T00:20:09;95003.56;;;8.31;87.20
13407;BME280;6774;48.208;10.766;2023-11-21T00:22:39;95007.59;;;8.26;87.49
13407;BME280;6774;48.208;10.766;2023-11-21T00:25:08;94997.81;;;8.20;87.73
13407;BME280;6774;48.208;10.766;2023-11-21T00:27:36;94997.38;;;8.17;87.84
13407;BME280;6774;48.208;10.766;2023-11-21T00:30:05;95004.16;;;8.26;87.20
13407;BME280;6774;48.208;10.766;2023-11-21T00:32:35;95006.69;;;8.19;87.54
13407;BME280;6774;48.208;10.766;2023-11-21T00:35:04;94996.66;;;8.23;87.91
13407;BME280;6774;48.208;10.766;2023-11-21T00:37:33;95003.56;;;8.31;87.24
13407;BME280;6774;48.208;10.766;2023-11-21T00:40:01;94994.69;;;8.32;87.53
13407;BME280;6774;48.208;10.766;2023-11-21T00:42:33;95004.38;;;8.31;87.31
13407;BME280;6774;48.208;10.766;2023-11-21T00:45:02;95006.41;;;8.29;87.46
13407;BME280;6774;48.208;10.766;2023-11-21T00:47:30;95011.81;;;8.06;87.89
13407;BME280;6774;48.208;10.766;2023-11-21T00:49:58;95008.78;;;8.24;86.76
13407;BME280;6774;48.208;10.766;2023-11-21T00:52:26;95019.72;;;8.27;87.53
13407;BME280;6774;48.208;10.766;2023-11-21T00:54:55;95026.81;;;8.12;88.07
13407;BME280;6774;48.208;10.766;2023-11-21T00:57:26;95026.47;;;8.15;87.77
13407;BME280;6774;48.208;10.766;2023-11-21T00:59:54;95022.84;;;8.16;87.55
13407;BME280;6774;48.208;10.766;2023-11-21T01:02:22;95027.94;;;8.03;88.33
13407;BME280;6774;48.208;10.766;2023-11-21T01:04:50;95033.41;;;7.87;89.25
13407;BME280;6774;48.208;10.766;2023-11-21T01:07:18;95028.13;;;7.57;90.05
13407;BME280;6774;48.208;10.766;2023-11-21T01:09:47;95037.38;;;7.53;91.43
13407;BME280;6774;48.208;10.766;2023-11-21T01:12:16;95030.50;;;7.52;91.63
13407;BME280;6774;48.208;10.766;2023-11-21T01:14:45;95031.03;;;7.62;91.19
13407;BME280;6774;48.208;10.766;2023-11-21T01:17:13;95027.97;;;7.74;92.16
13407;BME280;6774;48.208;10.766;2023-11-21T01:19:41;95019.72;;;7.47;91.46
13407;BME280;6774;48.208;10.766;2023-11-21T01:22:09;95026.66;;;7.40;92.16
13407;BME280;6774;48.208;10.766;2023-11-21T01:24:38;95033.47;;;7.34;92.08
13407;BME280;6774;48.208;10.766;2023-11-21T01:27:06;95025.97;;;7.46;92.89
13407;BME280;6774;48.208;10.766;2023-11-21T01:29:36;95024.16;;;7.61;91.91
13407;BME280;6774;48.208;10.766;2023-11-21T01:32:05;95028.31;;;7.70;91.28
13407;BME280;6774;48.208;10.766;2023-11-21T01:34:34;95027.69;;;7.83;91.38
13407;BME280;6774;48.208;10.766;2023-11-21T01:37:02;95029.41;;;7.91;90.41
13407;BME280;6774;48.208;10.766;2023-11-21T01:39:31;95030.88;;;7.79;91.29
13407;BME280;6774;48.208;10.766;2023-11-21T01:41:59;95023.06;;;7.85;90.61
13407;BME280;6774;48.208;10.766;2023-11-21T01:44:27;95025.34;;;7.88;90.59
13407;BME280;6774;48.208;10.766;2023-11-21T01:46:58;95012.44;;;7.93;90.58
13407;BME280;6774;48.208;10.766;2023-11-21T01:49:26;95021.78;;;7.96;90.16
13407;BME280;6774;48.208;10.766;2023-11-21T01:51:54;95017.78;;;8.00;89.77
13407;BME280;6774;48.208;10.766;2023-11-21T01:54:22;95010.28;;;7.97;89.67
13407;BME280;6774;48.208;10.766;2023-11-21T01:56:50;95017.78;;;8.00;89.41
13407;BME280;6774;48.208;10.766;2023-11-21T01:59:18;95019.41;;;8.01;89.20
13407;BME280;6774;48.208;10.766;2023-11-21T02:01:48;95017.78;;;8.15;88.82
13407;BME280;6774;48.208;10.766;2023-11-21T02:04:19;95017.59;;;8.16;88.36
13407;BME280;6774;48.208;10.766;2023-11-21T02:06:47;95011.41;;;8.24;88.61
13407;BME280;6774;48.208;10.766;2023-11-21T02:09:24;95017.72;;;8.30;88.79
13407;BME280;6774;48.208;10.766;2023-11-21T02:11:52;95007.97;;;8.23;87.98
13407;BME280;6774;48.208;10.766;2023-11-21T02:14:24;95004.34;;;8.24;88.22
13407;BME280;6774;48.208;10.766;2023-11-21T02:16:53;94996.19;;;8.19;88.46
13407;BME280;6774;48.208;10.766;2023-11-21T02:19:23;94992.63;;;7.91;89.38
13407;BME280;6774;48.208;10.766;2023-11-21T02:21:52;94989.63;;;7.94;89.42
13407;BME280;6774;48.208;10.766;2023-11-21T02:24:23;94991.50;;;8.00;88.92
13407;BME280;6774;48.208;10.766;2023-11-21T02:26:51;94994.63;;;7.89;89.04
13407;BME280;6774;48.208;10.766;2023-11-21T02:29:20;94995.88;;;7.93;88.77
13407;BME280;6774;48.208;10.766;2023-11-21T02:31:51;94992.31;;;8.01;88.56
13407;BME280;6774;48.208;10.766;2023-11-21T02:34:22;95006.03;;;7.96;88.69
13407;BME280;6774;48.208;10.766;2023-11-21T02:36:51;95002.94;;;7.92;88.90
13407;BME280;6774;48.208;10.766;2023-11-21T02:39:20;95000.22;;;7.86;89.00
13407;BME280;6774;48.208;10.766;2023-11-21T02:41:52;95002.22;;;7.84;88.90
13407;BME280;6774;48.208;10.766;2023-11-21T02:44:20;95006.75;;;7.90;88.97
13407;BME280;6774;48.208;10.766;2023-11-21T02:46:48;94999.50;;;7.92;88.94
13407;BME280;6774;48.208;10.766;2023-11-21T02:49:15;94997.69;;;7.92;88.18
13407;BME280;6774;48.208;10.766;2023-11-21T02:51:43;94995.34;;;7.83;88.45
13407;BME280;6774;48.208;10.766;2023-11-21T02:54:11;95011.28;;;7.81;88.45
13407;BME280;6774;48.208;10.766;2023-11-21T02:56:39;95002.97;;;7.78;89.61
13407;BME280;6774;48.208;10.766;2023-11-21T02:59:09;95006.56;;;7.77;89.41
13407;BME280;6774;48.208;10.766;2023-11-21T03:01:37;95005.69;;;7.69;89.34
13407;BME280;6774;48.208;10.766;2023-11-21T03:04:05;94997.16;;;7.67;90.03
13407;BME280;6774;48.208;10.766;2023-11-21T03:06:33;94997.63;;;7.56;90.05
13407;BME280;6774;48.208;10.766;2023-11-21T03:09:01;94995.09;;;7.48;90.16
13407;BME280;6774;48.208;10.766;2023-11-21T03:11:29;94987.13;;;7.56;90.12
13407;BME280;6774;48.208;10.766;2023-11-21T03:13:59;94992.66;;;7.32;91.00
13407;BME280;6774;48.208;10.766;2023-11-21T03:16:28;94982.44;;;7.52;90.67
13407;BME280;6774;48.208;10.766;2023-11-21T03:18:57;94992.13;;;7.51;90.04
13407;BME280;6774;48.208;10.766;2023-11-21T03:21:25;95000.06;;;7.28;90.05
13407;BME280;6774;48.208;10.766;2023-11-21T03:23:53;95000.53;;;7.47;90.19
13407;BME280;6774;48.208;10.766;2023-11-21T03:26:21;94998.25;;;7.29;91.88
13407;BME280;6774;48.208;10.766;2023-11-21T03:28:50;95001.31;;;7.18;92.55
13407;BME280;6774;48.208;10.766;2023-11-21T03:31:20;95009.25;;;7.09;93.12
13407;BME280;6774;48.208;10.766;2023-11-21T03:33:50;94997.25;;;7.15;93.17
13407;BME280;6774;48.208;10.766;2023-11-21T03:36:20;94999.16;;;7.36;92.89
13407;BME280;6774;48.208;10.766;2023-11-21T03:38:48;95002.97;;;7.48;92.67
13407;BME280;6774;48.208;10.766;2023-11-21T03:41:16;95006.84;;;7.23;92.94
13407;BME280;6774;48.208;10.766;2023-11-21T03:43:44;95011.22;;;7.60;91.68
13407;BME280;6774;48.208;10.766;2023-11-21T03:46:13;94997.72;;;7.63;90.70
13407;BME280;6774;48.208;10.766;2023-11-21T03:48:42;94996.81;;;7.56;90.22
13407;BME280;6774;48.208;10.766;2023-11-21T03:51:11;95004.25;;;7.52;90.70
13407;BME280;6774;48.208;10.766;2023-11-21T03:53:38;95008.03;;;7.64;90.37
13407;BME280;6774;48.208;10.766;2023-11-21T03:56:09;95012.66;;;7.62;89.99
13407;BME280;6774;48.208;10.766;2023-11-21T03:58:38;95012.72;;;7.84;89.85
13407;BME280;6774;48.208;10.766;2023-11-21T04:01:06;95011.81;;;7.77;89.91
13407;BME280;6774;48.208;10.766;2023-11-21T04:03:34;95016.53;;;7.81;89.11
13407;BME280;6774;48.208;10.766;2023-11-21T04:06:03;95018.72;;;7.78;88.40
13407;BME280;6774;48.208;10.766;2023-11-21T04:08:34;95018.97;;;7.68;88.78
13407;BME280;6774;48.208;10.766;2023-11-21T04:11:02;95017.88;;;7.77;88.94
13407;BME280;6774;48.208;10.766;2023-11-21T04:13:30;95024.50;;;7.73;88.36
13407;BME280;6774;48.208;10.766;2023-11-21T04:15:58;95014.44;;;7.77;88.42
13407;BME280;6774;48.208;10.766;2023-11-21T04:18:29;95019.97;;;7.82;88.46
13407;BME280;6774;48.208;10.766;2023-11-21T04:20:57;95013.25;;;7.94;88.32
13407;BME280;6774;48.208;10.766;2023-11-21T04:23:27;95014.78;;;8.03;87.57
13407;BME280;6774;48.208;10.766;2023-11-21T04:25:56;95004.56;;;7.93;88.27
13407;BME280;6774;48.208;10.766;2023-11-21T04:28:23;95010.53;;;8.02;87.95
13407;BME280;6774;48.208;10.766;2023-11-21T04:30:51;95004.84;;;7.98;88.41
13407;BME280;6774;48.208;10.766;2023-11-21T04:33:19;95005.66;;;7.99;88.24
13407;BME280;6774;48.208;10.766;2023-11-21T04:35:48;95002.13;;;7.92;88.00
13407;BME280;6774;48.208;10.766;2023-11-21T04:38:16;95003.50;;;7.88;88.14
13407;BME280;6774;48.208;10.766;2023-11-21T04:40:43;95008.13;;;7.71;88.23
13407;BME280;6774;48.208;10.766;2023-11-21T04:43:13;95010.38;;;7.74;88.15
13407;BME280;6774;48.208;10.766;2023-11-21T04:45:42;95003.88;;;7.55;88.46
13407;BME280;6774;48.208;10.766;2023-11-21T04:48:09;95010.75;;;7.56;88.97
13407;BME280;6774;48.208;10.766;2023-11-21T04:50:37;95011.94;;;7.54;88.41
13407;BME280;6774;48.208;10.766;2023-11-21T04:53:05;95010.84;;;7.48;88.82
13407;BME280;6774;48.208;10.766;2023-11-21T04:55:33;95008.13;;;7.41;89.12
13407;BME280;6774;48.208;10.766;2023-11-21T04:58:01;95006.22;;;7.35;88.66
13407;BME280;6774;48.208;10.766;2023-11-21T05:00:32;95007.13;;;7.28;88.88
13407;BME280;6774;48.208;10.766;2023-11-21T05:03:00;95008.75;;;7.29;88.97
13407;BME280;6774;48.208;10.766;2023-11-21T05:05:29;95007.66;;;7.38;89.11
13407;BME280;6774;48.208;10.766;2023-11-21T05:07:57;95008.75;;;7.29;89.43
13407;BME280;6774;48.208;10.766;2023-11-21T05:10:25;95016.81;;;7.42;88.74
13407;BME280;6774;48.208;10.766;2023-11-21T05:12:52;95010.66;;;7.35;89.03
13407;BME280;6774;48.208;10.766;2023-11-21T05:15:20;95019.34;;;7.35;88.54
13407;BME280;6774;48.208;10.766;2023-11-21T05:17:51;95017.63;;;7.43;88.03
13407;BME280;6774;48.208;10.766;2023-11-21T05:20:20;95017.81;;;7.41;88.97
13407;BME280;6774;48.208;10.766;2023-11-21T05:22:48;95019.53;;;7.49;87.87
13407;BME280;6774;48.208;10.766;2023-11-21T05:25:16;95017.56;;;7.51;87.88
13407;BME280;6774;48.208;10.766;2023-11-21T05:27:45;95026.69;;;7.55;87.42
13407;BME280;6774;48.208;10.766;2023-11-21T05:30:13;95026.06;;;7.53;87.45
13407;BME280;6774;48.208;10.766;2023-11-21T05:32:41;95027.25;;;7.50;87.41
13407;BME280;6774;48.208;10.766;2023-11-21T05:35:11;95034.47;;;7.48;87.33
13407;BME280;6774;48.208;10.766;2023-11-21T05:37:42;95023.16;;;7.48;86.93
13407;BME280;6774;48.208;10.766;2023-11-21T05:40:11;95032.66;;;7.34;87.14
13407;BME280;6774;48.208;10.766;2023-11-21T05:42:40;95026.59;;;7.48;87.39
13407;BME280;6774;48.208;10.766;2023-11-21T05:45:08;95033.81;;;7.31;87.35
13407;BME280;6774;48.208;10.766;2023-11-21T05:47:38;95030.84;;;7.49;87.56
13407;BME280;6774;48.208;10.766;2023-11-21T05:50:08;95022.97;;;7.34;87.15
13407;BME280;6774;48.208;10.766;2023-11-21T05:52:40;95023.16;;;7.48;86.49
13407;BME280;6774;48.208;10.766;2023-11-21T05:55:09;95028.88;;;7.51;86.96
13407;BME280;6774;48.208;10.766;2023-11-21T05:57:38;95025.25;;;7.52;86.35
13407;BME280;6774;48.208;10.766;2023-11-21T06:00:08;95023.22;;;7.39;86.76
13407;BME280;6774;48.208;10.766;2023-11-21T06:02:42;95033.19;;;7.44;86.86
13407;BME280;6774;48.208;10.766;2023-11-21T06:05:10;95025.03;;;7.39;86.86
13407;BME280;6774;48.208;10.766;2023-11-21T06:07:38;95037.63;;;7.44;86.69
13407;BME280;6774;48.208;10.766;2023-11-21T06:10:10;95029.03;;;7.35;87.10
13407;BME280;6774;48.208;10.766;2023-11-21T06:12:40;95029.88;;;7.12;87.28
13407;BME280;6774;48.208;10.766;2023-11-21T06:15:10;95029.88;;;7.12;87.56
13407;BME280;6774;48.208;10.766;2023-11-21T06:17:41;95036.31;;;7.10;87.65
13407;BME280;6774;48.208;10.766;2023-11-21T06:20:10;95038.75;;;7.11;87.70
13407;BME280;6774;48.208;10.766;2023-11-21T06:22:42;95043.59;;;7.23;87.66
13407;BME280;6774;48.208;10.766;2023-11-21T06:25:12;95042.94;;;7.21;87.68
13407;BME280;6774;48.208;10.766;2023-11-21T06:27:42;95039.22;;;7.15;87.96
13407;BME280;6774;48.208;10.766;2023-11-21T06:30:11;95046.56;;;7.20;87.52
13407;BME280;6774;48.208;10.766;2023-11-21T06:32:41;95052.28;;;7.23;87.53
13407;BME280;6774;48.208;10.766;2023-11-21T06:35:13;95051.53;;;7.29;87.23
13407;BME280;6774;48.208;10.766;2023-11-21T06:37:43;95052.03;;;7.33;87.63
13407;BME280;6774;48.208;10.766;2023-11-21T06:40:18;95055.53;;;7.25;87.37
13407;BME280;6774;48.208;10.766;2023-11-21T06:42:47;95055.78;;;7.16;88.08
13407;BME280;6774;48.208;10.766;2023-11-21T06:45:16;95056.03;;;7.06;88.38
13407;BME280;6774;48.208;10.766;2023-11-21T06:47:44;95066.84;;;7.03;88.36
13407;BME280;6774;48.208;10.766;2023-11-21T06:50:13;95063.47;;;7.17;88.71
13407;BME280;6774;48.208;10.766;2023-11-21T06:52:41;95064.97;;;7.11;88.70
13407;BME280;6774;48.208;10.766;2023-11-21T06:55:09;95073.41;;;7.07;88.35
13407;BME280;6774;48.208;10.766;2023-11-21T06:57:39;95071.16;;;7.19;88.23
13407;BME280;6774;48.208;10.766;2023-11-21T07:00:08;95062.94;;;7.22;88.61
13407;BME280;6774;48.208;10.766;2023-11-21T07:02:36;95067.66;;;7.26;88.65
13407;BME280;6774;48.208;10.766;2023-11-21T07:05:05;95071.47;;;7.24;88.67
13407;BME280;6774;48.208;10.766;2023-11-21T07:07:33;95077.53;;;7.39;88.49
13407;BME280;6774;48.208;10.766;2023-11-21T07:10:03;95075.72;;;7.25;88.24
13407;BME280;6774;48.208;10.766;2023-11-21T07:12:32;95075.97;;;7.30;88.20
13407;BME280;6774;48.208;10.766;2023-11-21T07:15:02;95076.34;;;7.27;88.48
13407;BME280;6774;48.208;10.766;2023-11-21T07:17:32;95087.22;;;7.24;88.68
13407;BME280;6774;48.208;10.766;2023-11-21T07:20:01;95084.91;;;7.21;88.31
13407;BME280;6774;48.208;10.766;2023-11-21T07:22:29;95083.09;;;7.06;88.70
13407;BME280;6774;48.208;10.766;2023-11-21T07:24:57;95088.03;;;7.24;88.43
13407;BME280;6774;48.208;10.766;2023-11-21T07:27:25;95081.63;;;7.41;88.56
13407;BME280;6774;48.208;10.766;2023-11-21T07:29:52;95091.94;;;7.43;88.51
13407;BME280;6774;48.208;10.766;2023-11-21T07:32:21;95096.56;;;7.41;88.00
13407;BME280;6774;48.208;10.766;2023-11-21T07:34:49;95105.06;;;7.43;88.59
13407;BME280;6774;48.208;10.766;2023-11-21T07:37:17;95107.69;;;7.43;88.65
13407;BME280;6774;48.208;10.766;2023-11-21T07:39:46;95108.47;;;7.29;89.07
13407;BME280;6774;48.208;10.766;2023-11-21T07:42:13;95119.59;;;7.31;88.70
13407;BME280;6774;48.208;10.766;2023-11-21T07:44:41;95116.72;;;7.40;88.94
13407;BME280;6774;48.208;10.766;2023-11-21T07:47:09;95116.13;;;7.53;88.82
13407;BME280;6774;48.208;10.766;2023-11-21T07:49:38;95116.94;;;7.54;88.57
13407;BME280;6774;48.208;10.766;2023-11-21T07:52:09;95120.69;;;7.59;87.80
13407;BME280;6774;48.208;10.766;2023-11-21T07:54:37;95118.88;;;7.75;88.05
13407;BME280;6774;48.208;10.766;2023-11-21T07:57:04;95118.44;;;7.71;87.17
13407;BME280;6774;48.208;10.766;2023-11-21T07:59:32;95119.84;;;7.44;88.98
13407;BME280;6774;48.208;10.766;2023-11-21T08:02:01;95122.94;;;7.62;88.98
13407;BME280;6774;48.208;10.766;2023-11-21T08:04:28;95123.22;;;7.67;89.78
13407;BME280;6774;48.208;10.766;2023-11-21T08:07:02;95121.44;;;7.83;88.95
13407;BME280;6774;48.208;10.766;2023-11-21T08:09:30;95115.09;;;7.92;88.30
13407;BME280;6774;48.208;10.766;2023-11-21T08:11:59;95121.91;;;7.86;88.23
13407;BME280;6774;48.208;10.766;2023-11-21T08:14:28;95122.34;;;7.90;88.51
13407;BME280;6774;48.208;10.766;2023-11-21T08:16:56;95126.06;;;8.10;86.96
13407;BME280;6774;48.208;10.766;2023-11-21T08:19:24;95132.13;;;8.25;86.95
13407;BME280;6774;48.208;10.766;2023-11-21T08:21:52;95129.59;;;8.17;87.30
13407;BME280;6774;48.208;10.766;2023-11-21T08:24:22;95120.34;;;8.07;87.75
13407;BME280;6774;48.208;10.766;2023-11-21T08:26:50;95123.78;;;8.22;87.54
13407;BME280;6774;48.208;10.766;2023-11-21T08:29:18;95114.56;;;7.96;87.50
13407;BME280;6774;48.208;10.766;2023-11-21T08:31:46;95126.16;;;8.02;88.38
13407;BME280;6774;48.208;10.766;2023-11-21T08:34:14;95119.91;;;7.88;88.10
13407;BME280;6774;48.208;10.766;2023-11-21T08:36:43;95125.97;;;8.18;88.42
13407;BME280;6774;48.208;10.766;2023-11-21T08:39:12;95123.69;;;8.30;87.59
13407;BME280;6774;48.208;10.766;2023-11-21T08:41:44;95129.69;;;8.24;87.47
13407;BME280;6774;48.208;10.766;2023-11-21T08:44:12;95137.03;;;8.28;88.76
13407;BME280;6774;48.208;10.766;2023-11-21T08:46:40;95132.66;;;8.21;88.09
13407;BME280;6774;48.208;10.766;2023-11-21T08:49:08;95141.91;;;8.32;88.58
13407;BME280;6774;48.208;10.766;2023-11-21T08:51:36;95140.63;;;8.57;87.47
13407;BME280;6774;48.208;10.766;2023-11-21T08:54:04;95147.63;;;8.06;87.75
13407;BME280;6774;48.208;10.766;2023-11-21T08:56:34;95147.53;;;8.28;88.01
13407;BME280;6774;48.208;10.766;2023-11-21T08:59:03;95143.03;;;8.52;86.54
13407;BME280;6774;48.208;10.766;2023-11-21T09:01:31;95144.34;;;8.63;86.68
13407;BME280;6774;48.208;10.766;2023-11-21T09:03:59;95142.13;;;8.45;87.83
13407;BME280;6774;48.208;10.766;2023-11-21T09:06:27;95141.75;;;8.48;87.86
13407;BME280;6774;48.208;10.766;2023-11-21T09:08:55;95150.69;;;8.68;87.11
13407;BME280;6774;48.208;10.766;2023-11-21T09:11:23;95144.09;;;8.58;87.48
13407;BME280;6774;48.208;10.766;2023-11-21T09:13:51;95146.81;;;8.64;86.94
13407;BME280;6774;48.208;10.766;2023-11-21T09:16:20;95152.97;;;8.71;86.41
13407;BME280;6774;48.208;10.766;2023-11-21T09:18:48;95155.91;;;8.83;86.93
13407;BME280;6774;48.208;10.766;2023-11-21T09:21:16;95155.50;;;8.79;86.66
13407;BME280;6774;48.208;10.766;2023-11-21T09:23:44;95157.13;;;8.80;86.36
13407;BME280;6774;48.208;10.766;2023-11-21T09:26:12;95154.59;;;8.72;86.87
13407;BME280;6774;48.208;10.766;2023-11-21T09:28:43;95158.94;;;9.01;86.98
13407;BME280;6774;48.208;10.766;2023-11-21T09:31:14;95171.81;;;9.11;86.16
13407;BME280;6774;48.208;10.766;2023-11-21T09:33:44;95174.81;;;9.08;85.77
13407;BME280;6774;48.208;10.766;2023-11-21T09:36:12;95172.91;;;9.17;86.19
13407;BME280;6774;48.208;10.766;2023-11-21T09:38:41;95183.66;;;9.22;86.21
13407;BME280;6774;48.208;10.766;2023-11-21T09:41:15;95175.66;;;9.30;85.20
13407;BME280;6774;48.208;10.766;2023-11-21T09:43:47;95171.94;;;9.03;84.92
13407;BME280;6774;48.208;10.766;2023-11-21T09:46:20;95163.31;;;8.94;86.66
13407;BME280;6774;48.208;10.766;2023-11-21T09:48:51;95158.91;;;9.16;86.52
13407;BME280;6774;48.208;10.766;2023-11-21T09:51:19;95164.06;;;9.46;85.21
13407;BME280;6774;48.208;10.766;2023-11-21T09:53:50;95157.59;;;9.05;85.98
13407;BME280;6774;48.208;10.766;2023-11-21T09:56:19;95168.94;;;9.27;85.06
13407;BME280;6774;48.208;10.766;2023-11-21T09:58:52;95165.69;;;9.25;85.11
13407;BME280;6774;48.208;10.766;2023-11-21T10:01:24;95171.44;;;9.57;85.25
13407;BME280;6774;48.208;10.766;2023-11-21T10:03:55;95165.25;;;9.43;82.92
13407;BME280;6774;48.208;10.766;2023-11-21T10:06:24;95163.28;;;9.73;82.26
13407;BME280;6774;48.208;10.766;2023-11-21T10:08:53;95166.78;;;10.08;82.80
13407;BME280;6774;48.208;10.766;2023-11-21T10:11:24;95167.94;;;9.71;82.69
13407;BME280;6774;48.208;10.766;2023-11-21T10:13:54;95168.03;;;9.84;82.33
13407;BME280;6774;48.208;10.766;2023-11-21T10:16:25;95169.91;;;9.69;82.68
13407;BME280;6774;48.208;10.766;2023-11-21T10:18:56;95171.09;;;9.88;82.81
13407;BME280;6774;48.208;10.766;2023-11-21T10:21:37;95178.66;;;10.53;82.51
13407;BME280;6774;48.208;10.766;2023-11-21T10:24:06;95170.84;;;10.39;81.09
13407;BME280;6774;48.208;10.766;2023-11-21T10:26:34;95166.31;;;10.61;81.64
13407;BME280;6774;48.208;10.766;2023-11-21T10:29:16;95166.44;;;10.94;80.59
13407;BME280;6774;48.208;10.766;2023-11-21T10:31:45;95169.19;;;11.27;79.67
13407;BME280;6774;48.208;10.766;2023-11-21T10:34:16;95166.97;;;11.70;78.17
13407;BME280;6774;48.208;10.766;2023-11-21T10:36:45;95159.06;;;11.77;75.84
13407;BME280;6774;48.208;10.766;2023-11-21T10:39:14;95150.19;;;10.90;76.71
13407;BME280;6774;48.208;10.766;2023-11-21T10:41:44;95160.00;;;11.16;77.98
13407;BME280;6774;48.208;10.766;2023-11-21T10:44:13;95157.69;;;10.93;78.32
13407;BME280;6774;48.208;10.766;2023-11-21T10:46:47;95159.72;;;10.43;79.32
13407;BME280;6774;48.208;10.766;2023-11-21T10:49:19;95171.59;;;10.67;78.76
13407;BME280;6774;48.208;10.766;2023-11-21T10:51:47;95158.19;;;10.69;78.34
13407;BME280;6774;48.208;10.766;2023-11-21T10:54:18;95154.44;;;10.43;79.82
13407;BME280;6774;48.208;10.766;2023-11-21T10:56:49;95153.03;;;10.47;79.60
13407;BME280;6774;48.208;10.766;2023-11-21T10:59:18;95146.88;;;10.75;78.82
13407;BME280;6774;48.208;10.766;2023-11-21T11:01:47;95152.59;;;10.85;79.28
13407;BME280;6774;48.208;10.766;2023-11-21T11:04:19;95162.28;;;10.71;77.76
13407;BME280;6774;48.208;10.766;2023-11-21T11:06:52;95160.78;;;10.21;79.53
13407;BME280;6774;48.208;10.766;2023-11-21T11:09:21;95155.63;;;10.41;78.84
13407;BME280;6774;48.208;10.766;2023-11-21T11:11:50;95144.41;;;10.67;77.76
13407;BME280;6774;48.208;10.766;2023-11-21T11:14:19;95149.06;;;11.39;78.26
13407;BME280;6774;48.208;10.766;2023-11-21T11:16:53;95157.13;;;11.04;76.46
13407;BME280;6774;48.208;10.766;2023-11-21T11:19:23;95145.41;;;11.40;75.77
13407;BME280;6774;48.208;10.766;2023-11-21T11:21:58;95146.53;;;10.91;75.55
13407;BME280;6774;48.208;10.766;2023-11-21T11:24:45;95152.66;;;10.98;76.84
13407;BME280;6774;48.208;10.766;2023-11-21T11:27:24;95158.81;;;11.25;75.34
13407;BME280;6774;48.208;10.766;2023-11-21T11:30:07;95155.09;;;11.00;76.13
13407;BME280;6774;48.208;10.766;2023-11-21T11:32:46;95150.63;;;11.14;75.22
13407;BME280;6774;48.208;10.766;2023-11-21T11:35:26;95149.91;;;11.53;75.98
13407;BME280;6774;48.208;10.766;2023-11-21T11:37:58;95140.56;;;11.77;75.55
13407;BME280;6774;48.208;10.766;2023-11-21T11:40:38;95144.63;;;11.46;73.52
13407;BME280;6774;48.208;10.766;2023-11-21T11:43:07;95148.28;;;11.45;73.87
13407;BME280;6774;48.208;10.766;2023-11-21T11:45:35;95150.69;;;11.27;74.84
13407;BME280;6774;48.208;10.766;2023-11-21T11:48:08;95144.50;;;10.93;76.14
13407;BME280;6774;48.208;10.766;2023-11-21T11:51:00;95148.59;;;11.02;75.83
13407;BME280;6774;48.208;10.766;2023-11-21T11:53:35;95148.13;;;10.79;76.27
13407;BME280;6774;48.208;10.766;2023-11-21T11:56:26;95151.41;;;10.94;77.74
13407;BME280;6774;48.208;10.766;2023-11-21T11:58:55;95142.84;;;10.79;77.75
13407;BME280;6774;48.208;10.766;2023-11-21T12:01:25;95149.56;;;10.88;76.94
13407;BME280;6774;48.208;10.766;2023-11-21T12:07:04;95143.31;;;11.02;75.85
13407;BME280;6774;48.208;10.766;2023-11-21T12:09:32;95148.56;;;10.89;75.94
13407;BME280;6774;48.208;10.766;2023-11-21T12:12:00;95147.28;;;10.72;76.95
13407;BME280;6774;48.208;10.766;2023-11-21T12:14:30;95147.56;;;11.03;75.65
13407;BME280;6774;48.208;10.766;2023-11-21T12:16:58;95144.28;;;10.95;76.99
13407;BME280;6774;48.208;10.766;2023-11-21T12:19:27;95146.09;;;10.81;76.53
13407;BME280;6774;48.208;10.766;2023-11-21T12:21:55;95139.72;;;11.30;75.03
13407;BME280;6774;48.208;10.766;2023-11-21T12:24:24;95134.44;;;11.30;75.35
13407;BME280;6774;48.208;10.766;2023-11-21T12:26:52;95147.78;;;11.02;74.21
13407;BME280;6774;48.208;10.766;2023-11-21T12:29:20;95144.59;;;11.26;77.05
13407;BME280;6774;48.208;10.766;2023-11-21T12:31:49;95145.44;;;11.53;74.09
13407;BME280;6774;48.208;10.766;2023-11-21T12:34:17;95147.47;;;11.78;74.17
13407;BME280;6774;48.208;10.766;2023-11-21T12:36:45;95146.88;;;11.62;73.98
13407;BME280;6774;48.208;10.766;2023-11-21T12:39:13;95143.81;;;11.79;74.16
13407;BME280;6774;48.208;10.766;2023-11-21T12:41:42;95137.31;;;11.75;74.83
13407;BME280;6774;48.208;10.766;2023-11-21T12:44:12;95140.16;;;12.19;72.81
13407;BME280;6774;48.208;10.766;2023-11-21T12:46:42;95147.88;;;11.68;74.66
13407;BME280;6774;48.208;10.766;2023-11-21T12:49:12;95154.34;;;11.32;73.51
13407;BME280;6774;48.208;10.766;2023-11-21T12:51:45;95159.66;;;11.52;72.12
13407;BME280;6774;48.208;10.766;2023-11-21T12:54:13;95161.00;;;11.15;71.77
13407;BME280;6774;48.208;10.766;2023-11-21T12:56:46;95159.13;;;10.89;72.65
13407;BME280;6774;48.208;10.766;2023-11-21T12:59:16;95157.19;;;11.31;73.42
13407;BME280;6774;48.208;10.766;2023-11-21T13:01:45;95160.66;;;11.38;73.64
13407;BME280;6774;48.208;10.766;2023-11-21T13:04:13;95160.09;;;11.62;73.55
13407;BME280;6774;48.208;10.766;2023-11-21T13:06:41;95164.75;;;11.67;71.50
13407;BME280;6774;48.208;10.766;2023-11-21T13:09:09;95163.31;;;11.51;71.89
13407;BME280;6774;48.208;10.766;2023-11-21T13:11:38;95162.53;;;11.71;71.78
13407;BME280;6774;48.208;10.766;2023-11-21T13:14:10;95168.44;;;12.12;71.57
13407;BME280;6774;48.208;10.766;2023-11-21T13:16:38;95168.81;;;12.36;71.41
13407;BME280;6774;48.208;10.766;2023-11-21T13:19:12;95166.94;;;12.56;71.32
13407;BME280;6774;48.208;10.766;2023-11-21T13:21:40;95170.97;;;12.65;71.09